Terminal Aerodrome Forecast
Issued by NWS Northern Indiana

Home | Current Version | Previous Version | Graphics & Text | Print | Product List | Glossary On
Versions: 1 2 3 4 5 6 7 8 9 10 11 12 13
000
FTUS43 KIWX 021421 AAA
TAFFWA
TAF AMD
KFWA 021421Z 0214/0312 05010KT P6SM OVC011
     FM021600 05010KT P6SM SCT015
     FM022300 06009KT P6SM SCT250=

USA.gov is the U.S. government's official web portal to all federal, state and local government web resources and services.